KCAD/CAD METAR and TAF weather

Enter ICAO airport designator
Station Type Date Time Source
KCAD METAR 2021/08/04 18:55 UTC NOAA

KCAD 041855Z AUTO 27005KT 10SM SCT043 BKN050 BKN065 27/16 A3012 RMK AO2 T02650157


Station Type Date Time Source
KCAD Decoded METAR 2021/08/04 18:55 UTC NOAA

Cadillac / Wexford County, MI, United States (KCAD) 44-17N 085-25W
Aug 04, 2021 - 02:55 PM EDT / 2021.08.04 1855 UTC
Wind: from the W (270 degrees) at 6 MPH (5 KT):0
Visibility: 10 mile(s):0
Sky conditions: mostly cloudy
Temperature: 79.7 F (26.5 C)
Dew Point: 60.3 F (15.7 C)
Relative Humidity: 51%
Pressure (altimeter): 30.12 in. Hg (1019 hPa)
ob: KCAD 041855Z AUTO 27005KT 10SM SCT043 BKN050 BKN065 27/16 A3012 RMK AO2 T02650157
cycle: 19

Station Type Date Time Source
KCAD TAF UTC NOAA

Error!

Example: see airport list